Time;durP1;ratioP1;P1;durP2;ratioP2;P2;SDS_P1;SDS_P2;PMS_P1;PMS_P2;Temp;Humidity;BMP_temperature;BMP_pressure;BME280_temperature;BME280_humidity;BME280_pressure;Samples;Min_cycle;Max_cycle;Signal;HPM_P1;HPM_P2
2021/12/11 00:00:45;;;;;;;1.40;1.20;;;18.40;47.00;;;;;;5091846;28;20065;-53
2021/12/11 00:03:20;;;;;;;1.50;0.98;;;18.40;47.00;;;;;;5093323;28;20005;-52
2021/12/11 00:05:49;;;;;;;1.60;1.30;;;18.40;47.00;;;;;;5093212;28;20027;-51
2021/12/11 00:08:17;;;;;;;1.30;1.00;;;18.30;47.00;;;;;;5101437;28;20572;-50
2021/12/11 00:10:47;;;;;;;3.00;1.00;;;18.30;47.00;;;;;;5095205;28;20011;-53
2021/12/11 00:13:16;;;;;;;1.65;1.10;;;18.30;47.00;;;;;;5113028;28;20016;-50
2021/12/11 00:15:44;;;;;;;1.42;1.10;;;18.30;47.10;;;;;;5113012;28;20016;-53
2021/12/11 00:18:24;;;;;;;1.67;1.10;;;18.30;47.10;;;;;;5094761;28;20049;-53
2021/12/11 00:21:14;;;;;;;1.50;1.17;;;18.30;47.10;;;;;;5112999;28;20087;-53
2021/12/11 00:23:58;;;;;;;2.00;1.35;;;18.30;47.10;;;;;;5102551;27;20035;-49
2021/12/11 00:26:29;;;;;;;1.80;1.15;;;18.30;47.10;;;;;;5117027;28;20106;-54
2021/12/11 00:28:55;;;;;;;2.13;1.27;;;18.30;47.10;;;;;;5117307;28;20119;-51
2021/12/11 00:31:21;;;;;;;1.10;1.00;;;18.30;47.20;;;;;;5116807;28;20072;-51
2021/12/11 00:33:48;;;;;;;1.25;1.15;;;18.30;47.20;;;;;;5117049;28;20046;-50
2021/12/11 00:36:16;;;;;;;1.35;1.20;;;18.20;47.70;;;;;;5116893;28;20068;-53
2021/12/11 00:38:42;;;;;;;1.50;1.00;;;18.20;47.20;;;;;;5116827;28;20016;-51
2021/12/11 00:41:11;;;;;;;1.67;1.00;;;18.20;47.20;;;;;;5098348;28;20016;-52
2021/12/11 00:43:37;;;;;;;1.70;1.20;;;18.20;47.20;;;;;;5116909;28;20020;-53
2021/12/11 00:46:05;;;;;;;1.10;1.00;;;18.20;47.20;;;;;;5099157;28;20050;-51
2021/12/11 00:48:31;;;;;;;1.40;1.10;;;18.20;47.20;;;;;;5116635;28;20020;-53
2021/12/11 00:50:59;;;;;;;1.52;1.17;;;18.20;47.30;;;;;;5098550;28;20037;-52
2021/12/11 00:53:31;;;;;;;2.35;1.30;;;18.20;47.30;;;;;;5116878;28;20031;-54
2021/12/11 00:56:03;;;;;;;1.13;1.02;;;18.20;47.30;;;;;;5098079;28;20061;-51
2021/12/11 00:58:31;;;;;;;1.42;1.20;;;18.20;47.30;;;;;;5116279;28;20016;-50
2021/12/11 01:01:09;;;;;;;1.70;1.30;;;18.10;47.30;;;;;;5116246;28;20020;-51
2021/12/11 01:03:44;;;;;;;1.48;0.98;;;18.20;47.30;;;;;;5116191;28;20020;-51
2021/12/11 01:06:18;;;;;;;2.40;1.10;;;18.20;47.30;;;;;;5116163;28;20011;-54
2021/12/11 01:08:54;;;;;;;1.33;1.08;;;18.10;47.30;;;;;;5115998;28;20050;-50
2021/12/11 01:11:36;;;;;;;1.67;1.20;;;18.10;47.30;;;;;;5115987;28;20008;-51
2021/12/11 01:14:14;;;;;;;1.25;1.00;;;18.10;47.30;;;;;;5116318;28;20037;-57
2021/12/11 01:16:41;;;;;;;1.83;1.30;;;18.10;47.30;;;;;;5115812;28;20024;-54
2021/12/11 01:19:07;;;;;;;1.30;1.00;;;18.10;47.40;;;;;;5116260;28;20016;-51
2021/12/11 01:24:16;;;;;;;1.40;1.30;;;18.10;47.40;;;;;;5116180;28;20020;-52
2021/12/11 01:26:48;;;;;;;1.95;1.10;;;18.10;47.40;;;;;;5115752;28;20268;-50
2021/12/11 01:29:14;;;;;;;1.50;1.02;;;18.10;47.40;;;;;;5115739;28;20011;-52
2021/12/11 01:31:40;;;;;;;1.38;1.10;;;18.00;47.40;;;;;;5115881;28;20015;-52
2021/12/11 01:34:07;;;;;;;3.05;1.17;;;18.10;47.40;;;;;;5079676;28;20181;-53
2021/12/11 01:36:33;;;;;;;1.58;1.08;;;18.00;47.40;;;;;;5115028;28;20057;-54
2021/12/11 01:39:00;;;;;;;0.80;0.80;;;18.00;47.40;;;;;;5115497;28;20504;-52
2021/12/11 01:41:26;;;;;;;1.10;0.85;;;18.00;47.40;;;;;;5115829;28;20042;-51
2021/12/11 01:43:55;;;;;;;2.00;1.30;;;18.00;47.40;;;;;;5097566;28;20019;-53
2021/12/11 01:46:22;;;;;;;1.00;0.90;;;18.00;47.40;;;;;;5115666;28;20016;-53
2021/12/11 01:48:50;;;;;;;1.58;1.13;;;18.00;47.40;;;;;;5115420;28;20012;-50
2021/12/11 01:51:23;;;;;;;1.35;1.10;;;18.00;47.50;;;;;;5115424;28;20461;-49
2021/12/11 01:54:00;;;;;;;1.50;1.05;;;18.00;47.50;;;;;;5115232;28;20068;-52
2021/12/11 01:56:27;;;;;;;1.45;1.00;;;18.00;47.50;;;;;;5115070;28;20114;-49
2021/12/11 01:59:02;;;;;;;1.52;1.08;;;18.00;47.40;;;;;;5115392;28;20014;-49
2021/12/11 02:01:36;;;;;;;1.17;0.80;;;18.00;47.40;;;;;;5115040;28;20533;-50
2021/12/11 02:04:03;;;;;;;1.08;0.98;;;18.00;47.50;;;;;;5115295;28;20016;-49
2021/12/11 02:06:31;;;;;;;2.05;1.00;;;17.90;47.50;;;;;;5080537;28;20465;-48
2021/12/11 02:08:57;;;;;;;1.38;1.00;;;18.00;47.50;;;;;;5114860;28;20050;-48
2021/12/11 02:11:25;;;;;;;2.63;1.15;;;18.00;47.50;;;;;;5115198;28;20018;-48
2021/12/11 02:13:56;;;;;;;1.27;1.05;;;17.90;47.50;;;;;;5116049;28;20016;-52
2021/12/11 02:16:38;;;;;;;1.52;1.20;;;17.90;47.50;;;;;;5115052;28;20031;-50
2021/12/11 02:19:15;;;;;;;1.75;1.10;;;17.90;47.50;;;;;;5114689;28;20057;-48
2021/12/11 02:21:48;;;;;;;1.63;1.13;;;17.90;47.50;;;;;;5114975;28;20039;-48
2021/12/11 02:24:16;;;;;;;1.30;0.98;;;17.90;47.50;;;;;;5114892;28;20011;-50
2021/12/11 02:26:41;;;;;;;1.42;1.00;;;17.90;47.50;;;;;;5096920;28;20069;-51
2021/12/11 02:29:17;;;;;;;1.05;0.73;;;17.80;47.50;;;;;;5114579;28;20028;-51
2021/12/11 02:31:57;;;;;;;1.55;1.20;;;17.90;47.60;;;;;;5114785;28;20008;-52
2021/12/11 02:34:27;;;;;;;2.70;1.17;;;17.90;47.60;;;;;;5114725;28;20030;-52
2021/12/11 02:36:57;;;;;;;1.55;1.10;;;17.80;47.50;;;;;;5096066;28;20038;-52
2021/12/11 02:39:37;;;;;;;1.33;1.10;;;17.90;47.60;;;;;;5114935;28;20032;-52
2021/12/11 02:42:13;;;;;;;1.55;1.20;;;17.90;47.60;;;;;;5114361;28;20015;-52
2021/12/11 02:44:46;;;;;;;1.75;1.23;;;17.80;47.60;;;;;;5114591;28;20534;-49
2021/12/11 02:47:32;;;;;;;1.48;1.05;;;17.80;47.60;;;;;;5114114;28;20039;-51
2021/12/11 02:50:04;;;;;;;1.48;0.98;;;17.80;47.60;;;;;;5114459;28;20030;-52
2021/12/11 02:52:43;;;;;;;1.25;1.05;;;17.80;47.60;;;;;;5114316;28;20023;-52
2021/12/11 02:55:31;;;;;;;2.22;1.00;;;17.80;47.60;;;;;;5095742;28;20023;-52
2021/12/11 02:58:01;;;;;;;2.10;1.20;;;17.80;47.60;;;;;;5114054;28;20028;-48
2021/12/11 03:00:33;;;;;;;1.67;1.25;;;17.80;47.60;;;;;;5114384;28;20049;-50
2021/12/11 03:03:03;;;;;;;1.30;1.00;;;17.80;47.60;;;;;;5113947;28;20018;-52
2021/12/11 03:05:39;;;;;;;1.42;1.10;;;17.80;47.70;;;;;;5114143;28;20060;-51
2021/12/11 03:08:07;;;;;;;1.00;0.80;;;17.80;47.60;;;;;;5113973;28;20044;-50
2021/12/11 03:10:33;;;;;;;1.77;1.00;;;17.80;47.70;;;;;;5114033;28;20031;-49
2021/12/11 03:13:00;;;;;;;2.25;1.17;;;17.80;47.70;;;;;;5114050;28;20020;-50
2021/12/11 03:15:26;;;;;;;1.10;0.88;;;17.80;47.70;;;;;;5114135;28;20072;-50
2021/12/11 03:17:52;;;;;;;1.48;1.10;;;17.80;47.80;;;;;;5113807;28;20023;-49
2021/12/11 03:20:19;;;;;;;1.20;0.98;;;17.80;47.70;;;;;;5095619;28;20359;-49
2021/12/11 03:22:46;;;;;;;1.83;0.88;;;17.70;47.70;;;;;;5113994;28;20020;-48
2021/12/11 03:25:16;;;;;;;1.20;0.90;;;17.70;48.30;;;;;;5113925;28;20032;-48
2021/12/11 03:27:45;;;;;;;1.88;0.90;;;17.70;47.70;;;;;;5113945;28;20012;-49
2021/12/11 03:30:13;;;;;;;1.42;1.05;;;17.70;47.70;;;;;;5113905;28;20069;-51
2021/12/11 03:32:39;;;;;;;1.17;1.00;;;17.70;47.70;;;;;;5113398;28;20012;-50
2021/12/11 03:35:06;;;;;;;2.05;0.93;;;17.70;47.70;;;;;;5095697;28;20024;-51
2021/12/11 03:37:32;;;;;;;2.75;1.30;;;17.70;47.70;;;;;;5095277;28;20047;-49
2021/12/11 03:39:57;;;;;;;1.77;1.05;;;17.70;47.70;;;;;;5113706;28;20046;-51
2021/12/11 03:42:26;;;;;;;2.13;1.10;;;17.70;47.70;;;;;;5095258;28;20095;-51
2021/12/11 03:44:51;;;;;;;0.93;0.80;;;17.70;47.70;;;;;;5113638;28;20022;-51
2021/12/11 03:47:22;;;;;;;2.58;1.00;;;17.70;47.70;;;;;;5095623;28;20072;-51
2021/12/11 03:49:48;;;;;;;1.60;1.10;;;17.70;47.70;;;;;;5113489;28;20012;-52
2021/12/11 03:52:14;;;;;;;1.10;1.00;;;17.70;47.70;;;;;;5113451;28;20092;-50
2021/12/11 03:54:41;;;;;;;1.52;0.90;;;17.70;47.70;;;;;;5113166;28;20074;-50
2021/12/11 03:57:08;;;;;;;1.40;1.00;;;17.70;47.70;;;;;;5113449;28;20028;-50
2021/12/11 03:59:34;;;;;;;1.60;0.93;;;17.70;47.70;;;;;;5117328;28;20046;-51
2021/12/11 04:02:30;;;;;;;1.65;0.90;;;17.70;47.70;;;;;;5099715;28;20044;-51
2021/12/11 04:04:59;;;;;;;1.90;1.17;;;17.60;47.70;;;;;;5117948;28;20016;-52
2021/12/11 04:07:31;;;;;;;2.13;0.93;;;17.60;47.70;;;;;;5117327;28;20015;-51
2021/12/11 04:10:04;;;;;;;1.23;1.02;;;17.60;47.70;;;;;;5117519;28;20007;-51
2021/12/11 04:12:30;;;;;;;1.50;0.95;;;17.60;47.70;;;;;;5117539;28;20012;-51
2021/12/11 04:14:57;;;;;;;1.85;1.10;;;17.60;47.70;;;;;;5082382;28;20034;-50
2021/12/11 04:17:25;;;;;;;1.17;0.80;;;17.60;47.80;;;;;;5082567;28;20035;-52
2021/12/11 04:19:54;;;;;;;1.48;0.93;;;17.60;47.80;;;;;;5117746;28;20027;-52
2021/12/11 04:22:20;;;;;;;1.52;1.05;;;17.60;47.80;;;;;;5117604;28;20012;-51
2021/12/11 04:24:46;;;;;;;1.40;1.02;;;17.60;47.80;;;;;;5098881;28;20027;-51
2021/12/11 04:27:12;;;;;;;2.05;1.00;;;17.60;47.80;;;;;;5098773;28;20140;-52
2021/12/11 04:29:38;;;;;;;1.60;0.90;;;17.60;47.80;;;;;;5117307;28;20027;-52
2021/12/11 04:32:05;;;;;;;1.52;1.02;;;17.60;47.80;;;;;;5116972;28;20020;-53
2021/12/11 04:34:32;;;;;;;1.77;0.93;;;17.60;47.80;;;;;;5099023;28;20026;-52
2021/12/11 04:37:14;;;;;;;1.80;0.98;;;17.60;47.90;;;;;;5099100;28;20035;-52
2021/12/11 04:39:41;;;;;;;1.85;0.85;;;17.60;47.90;;;;;;5116963;28;20470;-53
2021/12/11 04:42:29;;;;;;;0.93;0.70;;;17.60;47.90;;;;;;5116813;28;20018;-50
2021/12/11 04:44:55;;;;;;;1.08;0.98;;;17.60;47.90;;;;;;5116890;28;20023;-51
2021/12/11 04:47:34;;;;;;;1.33;0.93;;;17.60;47.90;;;;;;5117178;28;20095;-51
2021/12/11 04:50:05;;;;;;;2.22;0.95;;;17.50;47.90;;;;;;5116994;28;20106;-52
2021/12/11 04:52:47;;;;;;;2.63;1.00;;;17.50;47.90;;;;;;5116769;28;20012;-51
2021/12/11 05:06:00;;;;;;;1.63;0.90;;;17.50;48.00;;;;;;5116855;28;20513;-50
2021/12/11 05:11:14;;;;;;;1.35;0.93;;;17.50;48.00;;;;;;5070693;28;20049;-48
2021/12/11 05:13:42;;;;;;;1.85;1.05;;;17.50;48.00;;;;;;5116242;28;20474;-48
2021/12/11 05:16:11;;;;;;;2.15;0.90;;;17.50;48.00;;;;;;5099170;28;20028;-50
2021/12/11 05:18:40;;;;;;;1.25;0.90;;;17.50;48.00;;;;;;5116554;28;20469;-48
2021/12/11 05:21:12;;;;;;;1.23;0.80;;;17.50;48.00;;;;;;5116681;28;20099;-52
2021/12/11 05:23:38;;;;;;;2.03;1.00;;;17.40;48.00;;;;;;5115964;28;20012;-50
2021/12/11 05:26:06;;;;;;;2.28;1.08;;;17.40;48.10;;;;;;5097782;28;20015;-49
2021/12/11 05:28:32;;;;;;;1.70;1.00;;;17.40;48.10;;;;;;5098354;28;20077;-52
2021/12/11 05:30:59;;;;;;;1.92;1.20;;;17.40;48.00;;;;;;5116020;28;20012;-50
2021/12/11 05:33:25;;;;;;;1.58;1.00;;;17.40;48.00;;;;;;5115995;28;20032;-52
2021/12/11 05:35:51;;;;;;;1.70;1.00;;;17.40;48.00;;;;;;5115608;28;20073;-49
2021/12/11 05:38:17;;;;;;;1.13;0.88;;;17.40;48.00;;;;;;5115537;28;20046;-50
2021/12/11 05:40:46;;;;;;;1.25;0.88;;;17.40;48.10;;;;;;5115820;28;20011;-49
2021/12/11 05:43:12;;;;;;;2.17;1.00;;;17.40;48.10;;;;;;5116336;28;20008;-49
2021/12/11 05:45:39;;;;;;;2.00;1.30;;;17.40;48.10;;;;;;5116641;28;20046;-51
2021/12/11 05:48:06;;;;;;;1.95;1.08;;;17.40;48.10;;;;;;5116327;28;20023;-49
2021/12/11 05:50:38;;;;;;;1.55;1.08;;;17.40;48.10;;;;;;5115675;28;20011;-48
2021/12/11 05:53:04;;;;;;;2.35;1.10;;;17.40;48.10;;;;;;5115596;28;20027;-49
2021/12/11 05:55:31;;;;;;;1.60;0.77;;;17.40;48.20;;;;;;5116381;28;20011;-49
2021/12/11 05:57:58;;;;;;;1.80;1.00;;;17.40;48.20;;;;;;5116173;28;20023;-51
2021/12/11 06:00:33;;;;;;;1.60;0.82;;;17.40;48.20;;;;;;5098235;28;20061;-49
2021/12/11 06:02:59;;;;;;;2.05;1.00;;;17.30;48.20;;;;;;5115920;28;20012;-52
2021/12/11 06:05:25;;;;;;;2.15;1.25;;;17.30;48.20;;;;;;5114964;28;20012;-49
2021/12/11 06:07:52;;;;;;;1.70;1.08;;;17.30;48.20;;;;;;5114966;28;20819;-53
2021/12/11 06:10:18;;;;;;;1.92;0.98;;;17.30;48.20;;;;;;5097297;28;20015;-52
2021/12/11 06:12:45;;;;;;;2.72;1.38;;;17.40;48.30;;;;;;5097135;28;20027;-51
2021/12/11 06:15:11;;;;;;;1.52;0.93;;;17.40;48.30;;;;;;5096688;28;20056;-52
2021/12/11 06:17:38;;;;;;;2.35;1.10;;;17.30;48.20;;;;;;5115021;28;20032;-52
2021/12/11 06:20:05;;;;;;;1.83;1.00;;;17.30;48.20;;;;;;5079468;28;20016;-53
2021/12/11 06:22:32;;;;;;;1.48;0.80;;;17.30;48.40;;;;;;5114710;28;20034;-52
2021/12/11 06:24:59;;;;;;;1.88;0.95;;;17.30;48.30;;;;;;5114968;28;20008;-51
2021/12/11 06:27:25;;;;;;;2.20;1.05;;;17.30;48.30;;;;;;5114735;28;20096;-55
2021/12/11 06:29:51;;;;;;;2.42;1.08;;;17.30;48.30;;;;;;5096766;28;20062;-50
2021/12/11 06:32:17;;;;;;;2.35;1.20;;;17.30;48.30;;;;;;5114718;28;20020;-52
2021/12/11 06:34:43;;;;;;;2.25;1.10;;;17.30;48.30;;;;;;5114606;28;20024;-51
2021/12/11 06:37:09;;;;;;;0.98;0.82;;;17.30;48.30;;;;;;5096320;28;20050;-52
2021/12/11 06:39:36;;;;;;;1.55;1.05;;;17.30;48.30;;;;;;5115074;28;20016;-52
2021/12/11 06:42:03;;;;;;;1.92;1.10;;;17.20;48.30;;;;;;5096342;28;20489;-49
2021/12/11 06:44:30;;;;;;;1.40;0.95;;;17.20;48.30;;;;;;5114294;28;20018;-48
2021/12/11 06:46:58;;;;;;;2.22;1.20;;;17.20;48.30;;;;;;5114641;28;20023;-50
2021/12/11 06:49:24;;;;;;;1.33;0.90;;;17.20;48.40;;;;;;5114227;28;20020;-48
2021/12/11 06:51:50;;;;;;;2.75;1.00;;;17.20;48.40;;;;;;5114255;28;20540;-48
2021/12/11 06:54:16;;;;;;;4.22;1.33;;;17.20;48.40;;;;;;5096253;28;20047;-54
2021/12/11 06:56:42;;;;;;;2.30;1.17;;;17.20;48.40;;;;;;5114343;28;20019;-51
2021/12/11 06:59:09;;;;;;;1.88;0.90;;;17.20;48.40;;;;;;5114347;28;20011;-50
2021/12/11 07:01:35;;;;;;;1.85;1.10;;;17.20;48.40;;;;;;5114378;28;20058;-53
2021/12/11 07:04:01;;;;;;;2.55;1.27;;;17.20;48.50;;;;;;5113981;28;20035;-49
2021/12/11 07:06:27;;;;;;;1.13;0.85;;;17.20;48.50;;;;;;5095908;28;20051;-52
2021/12/11 07:08:53;;;;;;;2.15;1.17;;;17.20;48.50;;;;;;5113851;28;20122;-51
2021/12/11 07:11:19;;;;;;;1.85;1.20;;;17.10;48.50;;;;;;5114300;28;20018;-55
2021/12/11 07:13:46;;;;;;;2.20;1.20;;;17.10;48.40;;;;;;5114198;28;20049;-50
2021/12/11 07:16:11;;;;;;;2.45;1.20;;;17.10;48.50;;;;;;5114110;28;20106;-52
2021/12/11 07:18:37;;;;;;;1.60;0.90;;;17.10;48.50;;;;;;5114124;28;20113;-52
2021/12/11 07:21:03;;;;;;;2.53;1.00;;;17.10;48.50;;;;;;5113873;28;20489;-51
2021/12/11 07:23:30;;;;;;;1.85;1.00;;;17.10;48.50;;;;;;5114003;28;20139;-49
2021/12/11 07:26:02;;;;;;;1.70;1.05;;;17.10;48.60;;;;;;5113976;28;20011;-49
2021/12/11 07:28:28;;;;;;;2.97;1.05;;;17.10;48.60;;;;;;5114118;28;20022;-49
2021/12/11 07:30:55;;;;;;;2.10;0.80;;;17.10;48.60;;;;;;5095999;28;20099;-50
2021/12/11 07:33:21;;;;;;;1.95;1.00;;;17.10;48.60;;;;;;5113676;28;20048;-51
2021/12/11 07:35:49;;;;;;;1.88;0.85;;;17.10;48.60;;;;;;5078370;28;20102;-50
2021/12/11 07:38:15;;;;;;;2.92;1.15;;;17.10;48.60;;;;;;5113701;28;20034;-51
2021/12/11 07:40:45;;;;;;;2.10;0.93;;;17.10;48.60;;;;;;5113960;28;20035;-51
2021/12/11 07:43:12;;;;;;;2.58;1.10;;;17.00;48.50;;;;;;5095462;28;20012;-52
2021/12/11 07:45:40;;;;;;;1.40;0.90;;;17.00;48.50;;;;;;5113842;28;20478;-49
2021/12/11 07:48:06;;;;;;;2.35;1.20;;;17.00;48.60;;;;;;5113808;28;20081;-51
2021/12/11 07:50:32;;;;;;;1.88;1.15;;;17.10;48.60;;;;;;5113497;28;20019;-51
2021/12/11 07:52:58;;;;;;;2.92;1.02;;;17.00;48.60;;;;;;5113392;28;20023;-51
2021/12/11 07:55:24;;;;;;;2.38;1.00;;;17.00;48.60;;;;;;5113245;28;20408;-52
2021/12/11 07:57:51;;;;;;;3.67;1.10;;;17.00;48.60;;;;;;5113515;28;20024;-50
2021/12/11 08:00:19;;;;;;;1.63;1.08;;;17.00;48.60;;;;;;5095585;28;20023;-52
2021/12/11 08:02:47;;;;;;;2.33;1.05;;;17.00;48.60;;;;;;5094947;28;20026;-52
2021/12/11 08:05:13;;;;;;;3.53;1.10;;;17.00;48.60;;;;;;5095636;28;20016;-52
2021/12/11 08:07:40;;;;;;;2.08;1.20;;;17.00;48.60;;;;;;5113425;28;20142;-52
2021/12/11 08:10:12;;;;;;;2.38;1.27;;;17.00;48.60;;;;;;5113213;28;20111;-52
2021/12/11 08:12:37;;;;;;;1.75;0.98;;;17.00;48.70;;;;;;5113176;28;20019;-54
2021/12/11 08:15:05;;;;;;;2.25;1.10;;;17.00;48.80;;;;;;5113486;28;20028;-53
2021/12/11 08:17:31;;;;;;;1.48;0.95;;;17.00;48.60;;;;;;5113192;28;20381;-50
2021/12/11 08:19:58;;;;;;;2.38;1.10;;;17.00;48.60;;;;;;5113425;28;20011;-54
2021/12/11 08:22:23;;;;;;;2.30;1.15;;;17.00;48.60;;;;;;5094773;28;20016;-51
2021/12/11 08:24:50;;;;;;;1.25;0.90;;;17.00;48.60;;;;;;5113283;28;20043;-52
2021/12/11 08:27:18;;;;;;;2.45;1.00;;;17.00;48.60;;;;;;5094998;28;20474;-52
2021/12/11 08:29:45;;;;;;;2.70;1.27;;;17.00;48.60;;;;;;5112946;28;20016;-51
2021/12/11 08:32:11;;;;;;;1.70;0.93;;;16.90;48.60;;;;;;5112886;28;20462;-51
2021/12/11 08:34:37;;;;;;;1.98;0.95;;;17.00;48.60;;;;;;5112838;28;20115;-52
2021/12/11 08:37:04;;;;;;;1.48;0.90;;;16.90;48.60;;;;;;5094662;28;20107;-51
2021/12/11 08:39:30;;;;;;;2.50;1.35;;;16.90;48.60;;;;;;5113163;28;20008;-52
2021/12/11 08:41:56;;;;;;;1.40;0.82;;;16.90;48.70;;;;;;5112812;28;20024;-52
2021/12/11 08:44:23;;;;;;;1.80;0.93;;;16.90;48.60;;;;;;5096270;28;20016;-51
2021/12/11 08:46:54;;;;;;;2.72;1.30;;;16.90;48.70;;;;;;5116720;28;20054;-51
2021/12/11 08:49:24;;;;;;;1.73;1.10;;;16.90;48.70;;;;;;5116540;28;20024;-51
2021/12/11 08:52:11;;;;;;;2.08;1.08;;;16.90;48.70;;;;;;5116906;28;20015;-52
2021/12/11 08:54:38;;;;;;;1.17;0.85;;;16.90;48.70;;;;;;5116676;28;20015;-52
2021/12/11 08:57:11;;;;;;;2.63;1.10;;;16.90;48.70;;;;;;5081138;28;20051;-56
2021/12/11 08:59:38;;;;;;;2.65;1.10;;;16.90;48.70;;;;;;5098059;28;20020;-56
2021/12/11 09:02:12;;;;;;;2.08;0.93;;;16.90;48.70;;;;;;5116551;28;20019;-55
2021/12/11 09:04:44;;;;;;;1.25;0.80;;;16.90;48.70;;;;;;5097970;28;20016;-56
2021/12/11 09:07:14;;;;;;;1.60;1.25;;;16.90;48.70;;;;;;5116495;28;20020;-55
2021/12/11 09:09:51;;;;;;;2.20;1.20;;;16.90;48.70;;;;;;5116192;28;20047;-55
2021/12/11 09:12:45;;;;;;;2.13;1.00;;;16.90;48.70;;;;;;5117153;28;20066;-55
2021/12/11 09:15:16;;;;;;;1.85;0.90;;;16.90;48.70;;;;;;5098254;28;20016;-55
2021/12/11 09:17:46;;;;;;;2.83;1.33;;;16.90;48.70;;;;;;5116574;28;20044;-54
2021/12/11 09:20:25;;;;;;;1.50;0.90;;;16.90;48.70;;;;;;5116677;28;20016;-53
2021/12/11 09:22:54;;;;;;;2.53;1.05;;;16.80;49.20;;;;;;5098292;28;20465;-54
2021/12/11 09:25:27;;;;;;;1.58;1.00;;;16.90;48.70;;;;;;5116666;28;20015;-53
2021/12/11 09:28:13;;;;;;;2.03;1.00;;;16.90;48.70;;;;;;5098571;28;20012;-53
2021/12/11 09:30:48;;;;;;;1.85;1.10;;;16.90;48.70;;;;;;5116740;28;20015;-53
2021/12/11 09:33:17;;;;;;;3.83;1.20;;;16.80;48.60;;;;;;5116474;28;20023;-54
2021/12/11 09:35:50;;;;;;;3.10;1.25;;;16.90;48.70;;;;;;5116757;28;20015;-55
2021/12/11 09:38:29;;;;;;;2.60;1.20;;;16.80;48.60;;;;;;5116191;28;20090;-52
2021/12/11 09:40:55;;;;;;;2.50;1.10;;;16.90;48.60;;;;;;5116312;28;20063;-51
2021/12/11 09:43:30;;;;;;;3.45;1.20;;;16.90;48.70;;;;;;5116316;28;20024;-53
2021/12/11 09:45:56;;;;;;;1.92;0.93;;;16.90;48.60;;;;;;5115979;28;20050;-52
2021/12/11 09:48:22;;;;;;;2.53;0.95;;;16.90;48.60;;;;;;5116372;28;20090;-52
2021/12/11 09:50:56;;;;;;;3.22;1.30;;;16.80;48.60;;;;;;5115643;28;20039;-52
2021/12/11 09:53:23;;;;;;;2.85;1.00;;;16.90;48.70;;;;;;5116173;28;20019;-53
2021/12/11 09:55:50;;;;;;;2.10;1.13;;;16.90;48.70;;;;;;5114843;28;20004;-52
2021/12/11 09:58:20;;;;;;;2.60;1.05;;;16.80;48.60;;;;;;5116053;28;20016;-53
2021/12/11 10:01:03;;;;;;;3.10;1.20;;;16.80;48.60;;;;;;5115923;28;20035;-53
2021/12/11 10:03:30;;;;;;;4.13;1.00;;;16.80;48.60;;;;;;5116261;28;20012;-53
2021/12/11 10:06:50;;;;;;;2.78;1.08;;;16.80;48.60;;;;;;5115743;28;20011;-52
2021/12/11 10:09:31;;;;;;;2.15;1.00;;;16.80;48.70;;;;;;5115120;28;20040;-53
2021/12/11 10:11:57;;;;;;;;;;;16.80;48.60;;;;;;5116003;28;20043;-54
2021/12/11 10:14:35;;;;;;;4.05;1.35;;;16.80;48.60;;;;;;5115473;28;20566;-53
2021/12/11 10:17:07;;;;;;;2.70;1.20;;;16.80;48.60;;;;;;5115492;28;20044;-52
2021/12/11 10:19:32;;;;;;;;;;;16.80;48.60;;;;;;5116061;28;20057;-53
2021/12/11 10:22:05;;;;;;;3.03;1.13;;;16.80;48.60;;;;;;5115508;28;19903;-53
2021/12/11 10:24:32;;;;;;;1.50;0.90;;;16.80;48.60;;;;;;5097258;28;20039;-53
2021/12/11 10:26:58;;;;;;;2.78;1.30;;;16.80;48.70;;;;;;5115422;28;20031;-53
2021/12/11 10:29:24;;;;;;;2.17;1.08;;;16.80;48.70;;;;;;5115146;28;20020;-52
2021/12/11 10:32:16;;;;;;;1.23;0.82;;;16.80;48.70;;;;;;5114942;28;20031;-52
2021/12/11 10:34:43;;;;;;;1.52;1.10;;;16.80;48.70;;;;;;5115194;28;20018;-53
2021/12/11 10:37:12;;;;;;;2.10;1.10;;;16.80;48.60;;;;;;5114835;28;20023;-52
2021/12/11 10:39:40;;;;;;;2.47;1.10;;;16.80;48.70;;;;;;5115152;28;20031;-50
2021/12/11 10:42:07;;;;;;;2.72;1.05;;;16.80;48.70;;;;;;5115127;28;20050;-52
2021/12/11 10:44:37;;;;;;;1.50;1.00;;;16.80;48.60;;;;;;5115367;28;20011;-54
2021/12/11 10:47:27;;;;;;;3.08;1.10;;;16.80;48.60;;;;;;5096496;28;20107;-50
2021/12/11 10:49:53;;;;;;;1.60;0.93;;;16.80;48.60;;;;;;5114637;28;20023;-53
2021/12/11 10:52:29;;;;;;;2.78;1.10;;;16.80;48.60;;;;;;5114930;28;20027;-51
2021/12/11 10:54:56;;;;;;;2.40;1.10;;;16.80;48.60;;;;;;5114593;28;20553;-53
2021/12/11 10:57:23;;;;;;;3.22;1.20;;;16.80;48.60;;;;;;5114500;28;20538;-53
2021/12/11 10:59:53;;;;;;;1.85;0.90;;;16.80;48.60;;;;;;5114929;28;20365;-52
2021/12/11 11:02:26;;;;;;;1.53;1.00;;;16.80;48.60;;;;;;5114635;28;20014;-51
2021/12/11 11:04:55;;;;;;;2.42;1.20;;;16.80;48.60;;;;;;5114104;28;20023;-53
2021/12/11 11:07:21;;;;;;;2.38;1.30;;;16.80;48.60;;;;;;5114292;28;20023;-52
2021/12/11 11:09:48;;;;;;;2.00;1.17;;;16.80;48.60;;;;;;5114688;28;20054;-52
2021/12/11 11:12:16;;;;;;;1.95;1.25;;;16.80;48.60;;;;;;5114359;28;20024;-53
2021/12/11 11:14:43;;;;;;;3.10;1.20;;;16.80;48.60;;;;;;5114979;28;20038;-52
2021/12/11 11:17:15;;;;;;;1.80;1.20;;;16.80;48.60;;;;;;5096656;28;20038;-52
2021/12/11 11:19:42;;;;;;;2.30;1.20;;;16.70;48.50;;;;;;5114362;28;20011;-51
2021/12/11 11:22:10;;;;;;;2.42;1.08;;;16.80;48.60;;;;;;5114672;28;20019;-51
2021/12/11 11:24:39;;;;;;;3.00;1.20;;;16.80;48.60;;;;;;5114433;28;20011;-53
2021/12/11 11:27:06;;;;;;;1.92;1.00;;;16.80;48.60;;;;;;5114615;28;20019;-53
2021/12/11 11:29:31;;;;;;;2.95;1.30;;;16.80;48.60;;;;;;5114989;28;20075;-53
2021/12/11 11:32:02;;;;;;;4.35;1.23;;;16.80;48.50;;;;;;5114751;28;20084;-53
2021/12/11 11:34:29;;;;;;;1.83;0.98;;;16.80;48.60;;;;;;5114475;28;20026;-53
2021/12/11 11:36:56;;;;;;;2.95;1.25;;;16.80;48.60;;;;;;5096776;28;20027;-53
2021/12/11 11:39:22;;;;;;;3.17;1.35;;;16.80;48.60;;;;;;5114579;28;20008;-53
2021/12/11 11:41:54;;;;;;;2.17;1.20;;;16.80;48.60;;;;;;5095768;28;20019;-52
2021/12/11 11:44:21;;;;;;;1.75;0.80;;;16.80;48.50;;;;;;5114347;28;20489;-53
2021/12/11 11:46:47;;;;;;;2.20;1.20;;;16.80;48.50;;;;;;5114498;28;20111;-53
2021/12/11 11:49:13;;;;;;;2.45;1.30;;;16.70;48.50;;;;;;5113692;28;20039;-52
2021/12/11 11:51:42;;;;;;;1.55;0.98;;;16.70;48.50;;;;;;5113883;28;20083;-52
2021/12/11 11:54:08;;;;;;;2.88;1.20;;;16.70;48.50;;;;;;5114522;28;20117;-53
2021/12/11 11:56:37;;;;;;;2.47;1.20;;;16.70;48.50;;;;;;5114054;28;20032;-53
2021/12/11 11:59:04;;;;;;;1.67;1.10;;;16.70;48.40;;;;;;5095870;28;20027;-53
2021/12/11 12:01:34;;;;;;;2.65;1.33;;;16.70;48.50;;;;;;5114001;28;20012;-52
2021/12/11 12:04:01;;;;;;;2.53;1.23;;;16.80;48.50;;;;;;5114172;28;20004;-53
2021/12/11 12:06:31;;;;;;;2.35;1.10;;;16.80;48.50;;;;;;5095613;28;20470;-52
2021/12/11 12:08:59;;;;;;;2.38;1.30;;;16.80;48.50;;;;;;5092055;28;20063;-51
2021/12/11 12:11:31;;;;;;;2.20;0.88;;;16.70;48.50;;;;;;5093793;28;20021;-53
2021/12/11 12:14:00;;;;;;;2.28;1.00;;;16.70;48.40;;;;;;5093364;28;20019;-52
2021/12/11 12:16:26;;;;;;;2.00;1.05;;;16.70;48.50;;;;;;5092054;28;20022;-53
2021/12/11 12:18:52;;;;;;;3.78;1.50;;;16.70;48.50;;;;;;5096557;28;20015;-53
2021/12/11 12:21:18;;;;;;;4.00;1.15;;;16.70;48.50;;;;;;5096968;28;20016;-52
2021/12/11 12:23:45;;;;;;;2.58;1.10;;;16.70;48.50;;;;;;5098197;28;20069;-52
2021/12/11 12:26:16;;;;;;;3.05;1.15;;;16.70;48.50;;;;;;5097106;28;20024;-52
2021/12/11 12:28:42;;;;;;;1.63;0.98;;;16.70;48.50;;;;;;5097721;28;20009;-51
2021/12/11 12:31:30;;;;;;;1.48;1.08;;;16.70;48.50;;;;;;5097660;28;20012;-51
2021/12/11 12:33:55;;;;;;;2.03;1.20;;;16.70;48.50;;;;;;5097764;28;20018;-52
2021/12/11 12:36:21;;;;;;;1.88;1.00;;;16.70;48.50;;;;;;5096079;28;20028;-52
2021/12/11 12:38:47;;;;;;;2.33;1.00;;;16.70;48.50;;;;;;5095848;28;20115;-53
2021/12/11 12:41:38;;;;;;;2.08;1.23;;;16.70;48.40;;;;;;5096619;28;20077;-53
2021/12/11 12:46:44;;;;;;;2.05;1.10;;;16.70;49.00;;;;;;5096718;28;20020;-53
2021/12/11 12:49:11;;;;;;;3.10;1.60;;;16.70;48.40;;;;;;5096446;28;20100;-53
2021/12/11 12:51:38;;;;;;;2.55;1.25;;;16.70;48.40;;;;;;5096707;28;20036;-53
2021/12/11 12:54:05;;;;;;;3.33;1.20;;;16.70;48.40;;;;;;5096808;28;20044;-54
2021/12/11 12:56:40;;;;;;;3.33;1.30;;;16.70;48.40;;;;;;5096682;28;20119;-53
2021/12/11 12:59:23;;;;;;;2.72;1.27;;;16.70;48.50;;;;;;5096538;28;20012;-53
2021/12/11 13:02:02;;;;;;;1.60;0.98;;;16.70;48.50;;;;;;5096696;28;20012;-52
2021/12/11 13:04:31;;;;;;;2.72;1.00;;;16.70;48.40;;;;;;5097215;28;20019;-49
2021/12/11 13:06:59;;;;;;;2.00;1.00;;;16.70;48.40;;;;;;5095426;28;20035;-51
2021/12/11 13:09:41;;;;;;;3.97;1.58;;;16.70;48.40;;;;;;5095373;28;20054;-53
2021/12/11 13:12:22;;;;;;;1.35;0.98;;;16.70;48.40;;;;;;5096208;28;20417;-51
2021/12/11 13:14:48;;;;;;;2.20;1.10;;;16.70;48.40;;;;;;5096360;28;20069;-53
2021/12/11 13:17:25;;;;;;;2.25;1.08;;;16.70;48.40;;;;;;5095703;28;20032;-53
2021/12/11 13:19:53;;;;;;;1.80;1.10;;;16.70;48.40;;;;;;5095935;28;20023;-50